Time;durP1;ratioP1;P1;durP2;ratioP2;P2;SDS_P1;SDS_P2;PMS_P1;PMS_P2;Temp;Humidity;BMP_temperature;BMP_pressure;BME280_temperature;BME280_humidity;BME280_pressure;Samples;Min_cycle;Max_cycle;Signal;HPM_P1;HPM_P2
2022/09/05 00:02:26;;;;;;;12.50;3.65;;;18.80;99.90;;;;;;5040564;28;20107;-60
2022/09/05 00:05:29;;;;;;;7.18;3.63;;;18.80;99.90;;;;;;5032382;28;20056;-59
2022/09/05 00:08:06;;;;;;;11.02;3.83;;;18.60;99.90;;;;;;5045749;28;20041;-60
2022/09/05 00:10:35;;;;;;;4.22;3.50;;;18.60;1.00;;;;;;5052224;28;20490;-59
2022/09/05 00:13:04;;;;;;;3.72;3.22;;;18.60;1.00;;;;;;5051256;28;20064;-58
2022/09/05 00:15:56;;;;;;;4.80;3.50;;;18.60;13.40;;;;;;5048829;28;20038;-60
2022/09/05 00:18:40;;;;;;;6.32;4.10;;;18.60;85.60;;;;;;5051963;28;20425;-59
2022/09/05 00:21:31;;;;;;;6.93;3.92;;;18.50;99.90;;;;;;5051521;28;20048;-59
2022/09/05 00:24:11;;;;;;;5.03;3.63;;;18.50;99.90;;;;;;5045130;28;20120;-60
2022/09/05 00:26:52;;;;;;;5.75;3.75;;;18.50;99.90;;;;;;5028940;28;20037;-60
2022/09/05 00:29:39;;;;;;;4.10;3.60;;;18.40;1.00;;;;;;5023884;28;20058;-58
2022/09/05 00:32:42;;;;;;;7.32;3.97;;;18.30;1.00;;;;;;5050005;28;20045;-58
2022/09/05 00:35:11;;;;;;;7.13;3.75;;;18.30;79.90;;;;;;5051702;28;20569;-59
2022/09/05 00:37:46;;;;;;;8.23;3.88;;;18.20;99.90;;;;;;5029626;28;20045;-59
2022/09/05 00:40:25;;;;;;;9.43;3.92;;;18.20;99.90;;;;;;5051387;28;20047;-59
2022/09/05 00:42:58;;;;;;;5.53;3.95;;;18.20;1.00;;;;;;5026439;28;20549;-60
2022/09/05 00:45:34;;;;;;;8.45;3.83;;;18.20;1.00;;;;;;5032894;28;20041;-59
2022/09/05 00:48:06;;;;;;;5.30;4.35;;;18.10;99.90;;;;;;5050469;28;20078;-60
2022/09/05 00:50:40;;;;;;;5.65;3.83;;;18.00;99.90;;;;;;5051623;28;20091;-59
2022/09/05 00:53:18;;;;;;;6.07;3.88;;;18.10;99.90;;;;;;5050389;28;20510;-59
2022/09/05 00:56:18;;;;;;;6.32;4.18;;;18.00;1.00;;;;;;5049883;28;20522;-60
2022/09/05 00:59:25;;;;;;;7.47;3.72;;;18.00;98.20;;;;;;5047325;28;20086;-58
2022/09/05 01:02:05;;;;;;;8.25;4.40;;;18.00;99.90;;;;;;5036147;28;20037;-59
2022/09/05 01:04:43;;;;;;;7.80;4.20;;;18.00;1.00;;;;;;5031744;28;20064;-59
2022/09/05 01:07:38;;;;;;;8.00;4.50;;;17.90;1.00;;;;;;5046981;28;20049;-59
2022/09/05 01:10:13;;;;;;;6.57;4.40;;;17.90;99.90;;;;;;5042962;28;20128;-60
2022/09/05 01:13:08;;;;;;;5.82;4.45;;;17.80;99.90;;;;;;5045791;28;20454;-60
2022/09/05 01:15:51;;;;;;;6.70;4.45;;;17.70;1.00;;;;;;5040044;28;20107;-59
2022/09/05 01:18:46;;;;;;;7.65;4.70;;;17.70;99.90;;;;;;5047183;28;20064;-59
2022/09/05 01:21:48;;;;;;;5.65;4.13;;;17.60;1.00;;;;;;5039471;28;20116;-59
2022/09/05 01:24:40;;;;;;;7.88;4.80;;;17.50;99.90;;;;;;5047731;28;20506;-59
2022/09/05 01:27:25;;;;;;;8.20;5.43;;;17.40;1.00;;;;;;5043722;28;20040;-59
2022/09/05 01:29:57;;;;;;;6.70;4.80;;;17.30;99.90;;;;;;5047391;28;20033;-59
2022/09/05 01:32:50;;;;;;;8.20;5.05;;;17.30;99.90;;;;;;5046810;28;20087;-59
2022/09/05 01:35:35;;;;;;;6.10;4.53;;;17.30;1.00;;;;;;5050272;28;20021;-59
2022/09/05 01:38:15;;;;;;;6.13;4.85;;;17.30;1.00;;;;;;5050408;28;20037;-58
2022/09/05 01:40:51;;;;;;;7.28;4.90;;;17.20;59.40;;;;;;5050704;28;20044;-59
2022/09/05 01:43:33;;;;;;;8.02;5.40;;;17.10;99.90;;;;;;5047283;28;20041;-59
2022/09/05 01:46:25;;;;;;;7.38;5.60;;;17.10;99.90;;;;;;5043168;28;20495;-58
2022/09/05 01:48:59;;;;;;;5.97;4.80;;;17.00;99.90;;;;;;5049191;28;20037;-60
2022/09/05 01:51:39;;;;;;;5.65;4.95;;;17.00;99.90;;;;;;5031905;28;20124;-59
2022/09/05 01:54:15;;;;;;;6.55;5.20;;;16.90;99.90;;;;;;5051070;28;20518;-59
2022/09/05 01:56:49;;;;;;;8.57;5.43;;;16.90;99.90;;;;;;5049625;28;20033;-59
2022/09/05 01:59:38;;;;;;;7.57;5.47;;;16.90;99.90;;;;;;5039348;28;20131;-59
2022/09/05 02:02:41;;;;;;;6.40;5.28;;;16.80;99.90;;;;;;5050625;28;20037;-58
2022/09/05 02:05:13;;;;;;;9.00;5.32;;;16.80;99.90;;;;;;5046205;28;20491;-59
2022/09/05 02:08:01;;;;;;;7.20;5.20;;;16.80;99.90;;;;;;5041127;28;20037;-59
2022/09/05 02:11:11;;;;;;;10.40;5.93;;;16.70;99.90;;;;;;5053145;28;20043;-59
2022/09/05 02:13:48;;;;;;;7.40;5.47;;;16.70;99.90;;;;;;5002842;28;20041;-59
2022/09/05 02:16:35;;;;;;;7.70;5.43;;;16.70;99.90;;;;;;5048571;28;20371;-58
2022/09/05 02:19:28;;;;;;;7.90;5.65;;;16.60;99.90;;;;;;5041320;28;20046;-59
2022/09/05 02:22:25;;;;;;;10.98;5.55;;;16.60;99.90;;;;;;5052849;28;20037;-59
2022/09/05 02:25:02;;;;;;;;;;;16.50;99.90;;;;;;5044466;28;20088;-60
2022/09/05 02:27:43;;;;;;;9.35;5.43;;;16.50;99.90;;;;;;5048285;28;19921;-59
2022/09/05 02:30:18;;;;;;;8.40;6.32;;;16.50;99.90;;;;;;5054384;28;20044;-58
2022/09/05 02:32:53;;;;;;;8.35;6.00;;;16.50;99.90;;;;;;5044099;28;20503;-59
2022/09/05 02:35:26;;;;;;;7.65;5.90;;;16.50;99.90;;;;;;5053425;28;20052;-59
2022/09/05 02:38:04;;;;;;;7.82;5.60;;;16.40;99.90;;;;;;5044993;28;20037;-59
2022/09/05 02:40:46;;;;;;;7.13;5.85;;;16.40;99.90;;;;;;5053832;28;20053;-59
2022/09/05 02:43:36;;;;;;;8.90;5.82;;;16.40;99.90;;;;;;5051439;28;20029;-58
2022/09/05 02:46:11;;;;;;;8.88;5.60;;;16.30;99.90;;;;;;5041100;28;20047;-59
2022/09/05 02:48:52;;;;;;;11.32;5.90;;;16.40;99.90;;;;;;5052146;28;20041;-58
2022/09/05 02:51:24;;;;;;;11.10;6.00;;;16.40;99.90;;;;;;5034380;28;20044;-60
2022/09/05 02:54:05;;;;;;;14.18;6.10;;;16.40;99.90;;;;;;5038546;28;20091;-58
2022/09/05 02:56:44;;;;;;;7.90;6.30;;;16.40;99.90;;;;;;5050151;28;20048;-59
2022/09/05 02:59:14;;;;;;;7.80;6.38;;;16.40;99.90;;;;;;5052510;28;20037;-60
2022/09/05 03:02:09;;;;;;;7.93;6.32;;;16.40;99.90;;;;;;5052846;28;20410;-60
2022/09/05 03:04:39;;;;;;;9.25;6.40;;;16.40;99.90;;;;;;5052056;28;20060;-60
2022/09/05 03:07:23;;;;;;;7.28;6.57;;;16.40;99.90;;;;;;5036231;28;20585;-59
2022/09/05 03:10:29;;;;;;;11.85;6.55;;;16.40;99.90;;;;;;5043255;28;20538;-58
2022/09/05 03:13:16;;;;;;;8.40;7.10;;;16.30;99.90;;;;;;5043932;28;20399;-59
2022/09/05 03:16:21;;;;;;;8.40;7.10;;;16.30;99.90;;;;;;5048453;28;20549;-59
2022/09/05 03:19:18;;;;;;;10.80;5.97;;;16.30;99.90;;;;;;5051301;28;20098;-59
2022/09/05 03:21:53;;;;;;;;;;;16.20;99.90;;;;;;5052886;28;21200;-58
2022/09/05 03:24:45;;;;;;;7.82;6.30;;;16.20;99.90;;;;;;5051348;28;19995;-60
2022/09/05 03:27:35;;;;;;;9.23;6.50;;;16.20;99.90;;;;;;5038334;28;20037;-60
2022/09/05 03:30:14;;;;;;;8.05;7.00;;;16.20;99.90;;;;;;5052937;28;20387;-60
2022/09/05 03:33:17;;;;;;;8.93;6.70;;;16.10;99.90;;;;;;5046219;28;20128;-59
2022/09/05 03:35:51;;;;;;;8.13;6.15;;;16.10;99.90;;;;;;5047884;28;20502;-59
2022/09/05 03:38:19;;;;;;;11.27;6.65;;;16.00;99.90;;;;;;5050813;28;20045;-59
2022/09/05 03:41:02;;;;;;;7.68;5.88;;;16.10;99.90;;;;;;5053111;28;20041;-59
2022/09/05 03:43:55;;;;;;;9.75;6.70;;;16.00;99.90;;;;;;5049357;28;20037;-58
2022/09/05 03:46:53;;;;;;;8.65;6.80;;;16.10;99.90;;;;;;5041565;28;20045;-60
2022/09/05 03:49:24;;;;;;;7.53;6.57;;;16.00;99.90;;;;;;5049455;28;20087;-59
2022/09/05 03:52:19;;;;;;;8.07;6.78;;;16.00;99.90;;;;;;5051508;28;20463;-59
2022/09/05 03:55:07;;;;;;;8.07;7.25;;;16.10;99.90;;;;;;5040958;28;20330;-58
2022/09/05 03:57:49;;;;;;;13.32;7.35;;;16.00;99.90;;;;;;5048057;28;20107;-60
2022/09/05 04:00:28;;;;;;;11.05;7.13;;;16.00;99.90;;;;;;5050878;28;20465;-60
2022/09/05 04:02:56;;;;;;;12.43;7.72;;;15.90;99.90;;;;;;5048640;28;20036;-59
2022/09/05 04:05:34;;;;;;;8.70;7.00;;;15.90;99.90;;;;;;5044449;28;20049;-59
2022/09/05 04:08:08;;;;;;;11.23;7.00;;;15.90;99.90;;;;;;5046913;28;20593;-59
2022/09/05 04:11:05;;;;;;;6.93;6.22;;;15.90;99.90;;;;;;5034733;28;20051;-58
2022/09/05 04:13:31;;;;;;;;;;;15.90;99.90;;;;;;5049406;28;20064;-59
2022/09/05 04:16:07;;;;;;;7.37;6.47;;;15.80;99.90;;;;;;5037610;28;19917;-60
2022/09/05 04:18:41;;;;;;;14.35;7.07;;;15.70;99.90;;;;;;5044782;28;20048;-59
2022/09/05 04:21:19;;;;;;;14.10;7.43;;;15.70;99.90;;;;;;5033627;28;20041;-59
2022/09/05 04:24:06;;;;;;;10.23;7.43;;;15.70;99.90;;;;;;5045778;28;20083;-58
2022/09/05 04:26:56;;;;;;;12.07;7.60;;;15.70;99.90;;;;;;5050777;28;20482;-58
2022/09/05 04:29:37;;;;;;;8.57;7.20;;;15.60;99.90;;;;;;5033096;28;20044;-59
2022/09/05 04:32:40;;;;;;;11.55;7.80;;;15.70;99.90;;;;;;5047349;28;20028;-59
2022/09/05 04:35:33;;;;;;;9.20;7.05;;;15.60;99.90;;;;;;5047812;28;20111;-59
2022/09/05 04:38:16;;;;;;;10.05;8.05;;;15.60;99.90;;;;;;5046954;28;20486;-58
2022/09/05 04:40:44;;;;;;;14.40;8.38;;;15.60;99.90;;;;;;5051318;28;20044;-59
2022/09/05 04:43:24;;;;;;;8.65;7.75;;;15.60;99.90;;;;;;5049899;28;20036;-60
2022/09/05 04:46:28;;;;;;;9.23;7.38;;;15.60;99.90;;;;;;5051026;28;20052;-60
2022/09/05 04:49:30;;;;;;;9.43;7.43;;;15.60;99.90;;;;;;5028624;28;20063;-59
2022/09/05 04:52:05;;;;;;;10.43;7.18;;;15.50;99.90;;;;;;5037974;28;20049;-60
2022/09/05 04:54:34;;;;;;;8.63;7.50;;;15.40;99.90;;;;;;5032808;28;20041;-60
2022/09/05 04:57:23;;;;;;;14.98;8.07;;;15.50;99.90;;;;;;5050551;28;20083;-59
2022/09/05 05:00:06;;;;;;;11.35;7.15;;;15.30;99.90;;;;;;5049690;28;20051;-58
2022/09/05 05:02:41;;;;;;;10.05;7.47;;;15.30;99.90;;;;;;5050224;28;20052;-59
2022/09/05 05:05:17;;;;;;;11.13;7.80;;;15.50;99.90;;;;;;5047594;28;20105;-60
2022/09/05 05:07:45;;;;;;;14.02;7.88;;;15.40;99.90;;;;;;5048996;28;20078;-59
2022/09/05 05:10:23;;;;;;;12.85;7.35;;;15.50;99.90;;;;;;5051345;28;20509;-59
2022/09/05 05:12:49;;;;;;;12.82;7.82;;;15.50;99.90;;;;;;5047612;28;20042;-58
2022/09/05 05:15:20;;;;;;;8.30;7.15;;;15.60;99.90;;;;;;5041096;28;20568;-59
2022/09/05 05:18:00;;;;;;;13.20;7.60;;;15.70;99.90;;;;;;5021989;28;20174;-59
2022/09/05 05:20:50;;;;;;;11.52;7.28;;;15.70;99.90;;;;;;5023670;28;20518;-59
2022/09/05 05:23:18;;;;;;;12.27;7.28;;;15.80;99.90;;;;;;5044240;28;20094;-59
2022/09/05 05:25:55;;;;;;;11.32;7.18;;;15.70;99.90;;;;;;5042713;28;20025;-59
2022/09/05 05:28:26;;;;;;;;;;;15.80;99.90;;;;;;5043261;28;20491;-58
2022/09/05 05:30:54;;;;;;;9.95;7.30;;;15.90;99.90;;;;;;5046728;28;19979;-58
2022/09/05 05:33:39;;;;;;;9.68;7.38;;;15.80;99.90;;;;;;5042939;28;20049;-62
2022/09/05 05:36:13;;;;;;;9.25;6.85;;;15.80;99.90;;;;;;5052848;28;20642;-58
2022/09/05 05:38:52;;;;;;;11.82;7.07;;;15.90;99.90;;;;;;5048272;28;20048;-60
2022/09/05 05:41:48;;;;;;;15.13;7.35;;;15.90;99.90;;;;;;5052167;28;20037;-59
2022/09/05 05:44:17;;;;;;;10.82;7.57;;;15.90;99.90;;;;;;5050316;28;20460;-59
2022/09/05 05:46:59;;;;;;;8.90;6.93;;;15.90;99.90;;;;;;5053918;28;20095;-59
2022/09/05 05:50:06;;;;;;;10.55;7.97;;;16.10;99.90;;;;;;5043546;28;20049;-60
2022/09/05 05:52:48;;;;;;;;;;;16.20;99.90;;;;;;5008954;28;20037;-59
2022/09/05 05:55:35;;;;;;;10.60;7.57;;;16.20;99.90;;;;;;5008274;28;19936;-59
2022/09/05 05:58:34;;;;;;;8.38;6.63;;;16.40;99.90;;;;;;5037165;28;20529;-59
2022/09/05 06:01:13;;;;;;;9.60;7.05;;;16.50;99.90;;;;;;5033018;28;20863;-58
2022/09/05 06:04:11;;;;;;;16.48;7.68;;;16.50;99.90;;;;;;5050398;28;20163;-60
2022/09/05 06:07:06;;;;;;;9.68;7.22;;;16.50;99.90;;;;;;5049573;28;20045;-59
2022/09/05 06:10:02;;;;;;;9.85;6.70;;;16.50;99.90;;;;;;5051267;28;20502;-59
2022/09/05 06:12:43;;;;;;;8.98;6.88;;;16.70;99.90;;;;;;5043493;28;20104;-58
2022/09/05 06:15:37;;;;;;;8.73;7.40;;;16.80;99.90;;;;;;5049197;28;20406;-59
2022/09/05 06:18:24;;;;;;;17.13;7.65;;;16.80;99.90;;;;;;5049298;28;20037;-58
2022/09/05 06:21:28;;;;;;;12.18;7.78;;;16.90;99.90;;;;;;5050166;28;20147;-58
2022/09/05 06:24:02;;;;;;;9.60;7.55;;;16.90;99.90;;;;;;5048801;28;20049;-58
2022/09/05 06:26:56;;;;;;;10.50;7.60;;;17.00;99.90;;;;;;5030754;28;20037;-58
2022/09/05 06:29:43;;;;;;;8.95;7.50;;;17.10;99.90;;;;;;5053487;28;20036;-59
2022/09/05 06:32:29;;;;;;;13.10;8.40;;;17.20;99.90;;;;;;5049008;28;20033;-60
2022/09/05 06:35:17;;;;;;;9.00;7.67;;;17.30;99.90;;;;;;5031728;28;20045;-58
2022/09/05 06:37:42;;;;;;;14.73;7.40;;;17.40;99.90;;;;;;5047830;28;20125;-61
2022/09/05 06:40:11;;;;;;;14.00;7.40;;;17.60;99.90;;;;;;5049339;28;20120;-59
2022/09/05 06:42:36;;;;;;;8.05;7.25;;;17.60;99.90;;;;;;5048210;28;20407;-58
2022/09/05 06:45:38;;;;;;;12.77;7.63;;;17.70;99.90;;;;;;5052844;28;20033;-60
2022/09/05 06:48:30;;;;;;;9.98;7.45;;;17.80;99.90;;;;;;5043273;28;20041;-58
2022/09/05 06:51:21;;;;;;;8.05;7.25;;;17.80;99.90;;;;;;5040593;28;20388;-58
2022/09/05 06:54:21;;;;;;;8.88;7.32;;;17.90;99.90;;;;;;5022625;28;20562;-58
2022/09/05 06:57:22;;;;;;;10.75;7.35;;;18.10;99.90;;;;;;5044836;28;20053;-58
2022/09/05 07:00:07;;;;;;;8.25;7.30;;;18.30;99.90;;;;;;5032363;28;20067;-59
2022/09/05 07:03:03;;;;;;;11.48;7.85;;;18.40;99.90;;;;;;5051016;28;20483;-59
2022/09/05 07:05:45;;;;;;;9.93;8.10;;;18.50;99.90;;;;;;5050799;28;20044;-59
2022/09/05 07:08:28;;;;;;;10.70;7.50;;;18.70;99.90;;;;;;5046504;28;20044;-59
2022/09/05 07:10:56;;;;;;;11.55;8.75;;;18.90;99.90;;;;;;5033287;28;20086;-60
2022/09/05 07:13:35;;;;;;;9.50;8.23;;;19.00;99.90;;;;;;5045920;28;20044;-59
2022/09/05 07:16:18;;;;;;;8.63;7.70;;;19.10;99.90;;;;;;5049394;28;20413;-60
2022/09/05 07:19:13;;;;;;;11.00;8.30;;;19.20;99.90;;;;;;5047251;28;20048;-59
2022/09/05 07:21:59;;;;;;;12.20;8.40;;;19.30;99.90;;;;;;5049234;28;20044;-59
2022/09/05 07:24:26;;;;;;;;;;;19.30;99.90;;;;;;5029755;28;20115;-59
2022/09/05 07:26:55;;;;;;;11.38;9.15;;;19.30;99.90;;;;;;5048387;28;19975;-60
2022/09/05 07:29:28;;;;;;;11.18;8.63;;;19.50;99.90;;;;;;5047745;28;20037;-59
2022/09/05 07:31:58;;;;;;;13.07;7.95;;;19.60;99.90;;;;;;5038531;28;20044;-59
2022/09/05 07:34:29;;;;;;;11.68;8.30;;;19.80;99.90;;;;;;5042480;28;20497;-59
2022/09/05 07:36:58;;;;;;;11.45;8.45;;;20.00;99.90;;;;;;5029202;28;20037;-60
2022/09/05 07:39:28;;;;;;;14.40;8.63;;;20.00;99.90;;;;;;5048115;28;20043;-59
2022/09/05 07:41:59;;;;;;;8.95;8.05;;;20.10;99.90;;;;;;5051559;28;20041;-59
2022/09/05 07:44:29;;;;;;;10.85;7.85;;;20.20;99.90;;;;;;5033618;28;20032;-59
2022/09/05 07:47:17;;;;;;;10.65;8.30;;;20.30;99.90;;;;;;5048599;28;20577;-59
2022/09/05 07:49:44;;;;;;;10.70;8.60;;;20.40;99.90;;;;;;5039429;28;20494;-60
2022/09/05 07:52:22;;;;;;;11.05;8.38;;;20.60;99.90;;;;;;5032811;28;20106;-60
2022/09/05 07:54:52;;;;;;;10.85;8.75;;;21.00;99.90;;;;;;5032492;28;20044;-59
2022/09/05 07:57:22;;;;;;;12.35;8.70;;;21.20;99.90;;;;;;5047480;28;20094;-61
2022/09/05 07:59:51;;;;;;;10.10;8.15;;;21.30;99.90;;;;;;5049451;28;20047;-62
2022/09/05 08:02:16;;;;;;;12.10;8.45;;;21.50;99.90;;;;;;5028757;28;20045;-60
2022/09/05 08:04:42;;;;;;;9.20;7.68;;;21.80;99.90;;;;;;5033175;28;21036;-60
2022/09/05 08:07:37;;;;;;;11.73;8.48;;;22.00;99.90;;;;;;5030946;28;20415;-59
2022/09/05 08:10:32;;;;;;;10.88;8.10;;;22.20;99.90;;;;;;5027736;28;20076;-61
2022/09/05 08:13:08;;;;;;;10.68;7.65;;;22.50;99.90;;;;;;5042358;28;20049;-60
2022/09/05 08:15:35;;;;;;;;;;;22.60;99.90;;;;;;5050686;28;20428;-60
2022/09/05 08:18:17;;;;;;;10.00;8.35;;;22.70;99.90;;;;;;5041724;28;20267;-61
2022/09/05 08:20:48;;;;;;;9.73;7.82;;;22.90;1.00;;;;;;5049464;28;20041;-61
2022/09/05 08:23:47;;;;;;;10.02;8.00;;;22.90;91.80;;;;;;5048928;28;20439;-60
2022/09/05 08:26:15;;;;;;;10.63;8.57;;;23.00;75.50;;;;;;5046636;28;20037;-61
2022/09/05 08:29:11;;;;;;;10.80;8.40;;;23.20;99.90;;;;;;5042775;28;20055;-61
2022/09/05 08:31:39;;;;;;;10.00;7.47;;;23.60;56.90;;;;;;5044901;28;20037;-61
2022/09/05 08:34:14;;;;;;;9.80;7.22;;;23.90;99.90;;;;;;5047315;28;20071;-61
2022/09/05 08:36:45;;;;;;;9.80;7.88;;;24.20;1.00;;;;;;5042423;28;20059;-62
2022/09/05 08:39:14;;;;;;;13.25;7.05;;;24.40;1.00;;;;;;5049515;28;20455;-61
2022/09/05 08:41:45;;;;;;;8.73;6.70;;;24.70;1.00;;;;;;5047670;28;20474;-61
2022/09/05 08:44:23;;;;;;;8.60;6.45;;;24.90;1.00;;;;;;5045003;28;20029;-60
2022/09/05 08:47:19;;;;;;;8.48;7.10;;;25.10;99.90;;;;;;5043706;28;20118;-60
2022/09/05 08:50:04;;;;;;;10.82;6.70;;;25.00;99.90;;;;;;5040670;28;20083;-61
2022/09/05 08:52:55;;;;;;;9.57;7.47;;;25.00;34.50;;;;;;5041771;28;20041;-60
2022/09/05 08:55:36;;;;;;;9.85;7.70;;;24.90;1.00;;;;;;5048598;28;20049;-60
2022/09/05 08:58:21;;;;;;;7.70;6.53;;;24.90;99.90;;;;;;5043854;28;20129;-60
2022/09/05 09:00:54;;;;;;;8.15;6.95;;;25.30;99.90;;;;;;5049397;28;20052;-61
2022/09/05 09:03:44;;;;;;;8.27;6.53;;;25.40;99.90;;;;;;5046799;28;20187;-61
2022/09/05 09:06:19;;;;;;;11.27;6.97;;;25.40;55.70;;;;;;5009074;28;20080;-62
2022/09/05 09:09:05;;;;;;;17.95;8.23;;;25.60;1.00;;;;;;5008625;28;20034;-60
2022/09/05 09:11:46;;;;;;;12.95;7.45;;;25.60;1.00;;;;;;5003686;28;20062;-60
2022/09/05 09:14:23;;;;;;;9.27;6.25;;;25.80;99.90;;;;;;5009883;28;20073;-60
2022/09/05 09:17:14;;;;;;;11.10;5.88;;;25.90;99.90;;;;;;5009613;28;20046;-60
2022/09/05 09:19:48;;;;;;;7.85;5.55;;;26.20;99.90;;;;;;5008683;28;20054;-61
2022/09/05 09:22:44;;;;;;;7.68;5.63;;;26.50;90.80;;;;;;5002939;28;20034;-58
2022/09/05 09:25:15;;;;;;;6.93;4.88;;;26.50;1.00;;;;;;4980956;28;20064;-59
2022/09/05 09:28:11;;;;;;;6.55;5.03;;;26.70;1.00;;;;;;4990370;28;20042;-59
2022/09/05 09:30:42;;;;;;;8.57;4.43;;;27.00;99.90;;;;;;5009475;28;20449;-60
2022/09/05 09:33:13;;;;;;;7.15;5.53;;;27.20;99.90;;;;;;5008052;28;20133;-59
2022/09/05 09:35:58;;;;;;;6.55;4.30;;;27.50;99.90;;;;;;5009490;28;20077;-58
2022/09/05 09:39:20;;;;;;;5.90;4.65;;;27.70;99.90;;;;;;5004344;28;20407;-60
2022/09/05 09:41:57;;;;;;;8.80;4.00;;;27.70;99.90;;;;;;4950044;28;20503;-58
2022/09/05 09:44:41;;;;;;;5.55;3.50;;;27.90;99.90;;;;;;4951148;28;20058;-59
2022/09/05 09:47:13;;;;;;;5.10;4.05;;;27.90;46.80;;;;;;4995762;28;20038;-59
2022/09/05 09:50:00;;;;;;;6.00;4.40;;;28.30;15.50;;;;;;5010263;28;20092;-59
2022/09/05 09:52:50;;;;;;;7.55;4.80;;;28.60;1.00;;;;;;5004717;28;20033;-59
2022/09/05 09:55:28;;;;;;;7.32;4.00;;;28.50;1.00;;;;;;5013323;28;20557;-59
2022/09/05 09:57:58;;;;;;;8.10;3.22;;;28.50;1.00;;;;;;5009652;28;20574;-59
2022/09/05 10:00:30;;;;;;;4.28;3.58;;;28.50;1.00;;;;;;5006384;28;20054;-59
2022/09/05 10:03:11;;;;;;;4.18;3.58;;;28.60;1.00;;;;;;5003906;28;20029;-58
2022/09/05 10:06:03;;;;;;;5.55;3.45;;;28.70;1.00;;;;;;5042314;28;20511;-59
2022/09/05 10:09:02;;;;;;;5.80;3.28;;;29.00;1.00;;;;;;5047254;28;20075;-59
2022/09/05 10:11:51;;;;;;;9.85;3.85;;;29.10;1.00;;;;;;5047290;28;20063;-59
2022/09/05 10:14:43;;;;;;;5.30;3.58;;;29.30;1.00;;;;;;5027759;28;20049;-59
2022/09/05 10:17:21;;;;;;;4.07;2.60;;;29.20;1.00;;;;;;5046721;28;20043;-60
2022/09/05 10:20:00;;;;;;;3.05;2.38;;;29.40;1.00;;;;;;5047080;28;20041;-59
2022/09/05 10:22:49;;;;;;;3.38;3.00;;;29.40;1.00;;;;;;5048118;28;20041;-60
2022/09/05 10:25:45;;;;;;;5.18;2.90;;;29.50;99.90;;;;;;5053740;28;20033;-59
2022/09/05 10:28:28;;;;;;;;;;;29.50;99.90;;;;;;5053423;28;20147;-61
2022/09/05 10:31:15;;;;;;;5.18;2.45;;;29.40;99.90;;;;;;5052152;28;19916;-60
2022/09/05 10:33:58;;;;;;;6.53;2.90;;;29.10;99.90;;;;;;5048179;28;20037;-60
2022/09/05 10:36:27;;;;;;;3.97;2.63;;;29.20;99.90;;;;;;5049282;28;20045;-61
2022/09/05 10:39:14;;;;;;;5.28;2.55;;;29.40;99.90;;;;;;5030612;28;20139;-59
2022/09/05 10:41:52;;;;;;;2.85;2.08;;;29.30;99.90;;;;;;5048102;28;20090;-59
2022/09/05 10:44:45;;;;;;;4.47;2.33;;;29.40;99.90;;;;;;5048862;28;20037;-60
2022/09/05 10:47:39;;;;;;;6.07;2.25;;;29.40;99.90;;;;;;5048848;28;20044;-59
2022/09/05 10:50:26;;;;;;;4.43;2.20;;;29.20;99.90;;;;;;5034153;28;20997;-59
2022/09/05 10:53:29;;;;;;;8.88;2.03;;;29.00;99.90;;;;;;5034400;28;20045;-59
2022/09/05 10:56:05;;;;;;;2.65;2.00;;;28.90;99.90;;;;;;4978147;28;20050;-59
2022/09/05 10:58:46;;;;;;;3.28;1.75;;;29.00;99.90;;;;;;5047195;28;20406;-59
2022/09/05 11:01:36;;;;;;;5.00;2.03;;;29.00;99.90;;;;;;5052271;28;20050;-59
2022/09/05 11:04:44;;;;;;;4.55;1.90;;;28.90;99.90;;;;;;5040005;28;20049;-61
2022/09/05 11:07:23;;;;;;;3.97;1.80;;;28.80;99.90;;;;;;5046231;28;20143;-60
2022/09/05 11:09:58;;;;;;;2.63;1.88;;;28.60;99.90;;;;;;5049569;28;20043;-61
2022/09/05 11:12:46;;;;;;;6.30;1.80;;;28.60;99.90;;;;;;5049967;28;20136;-60
2022/09/05 11:15:23;;;;;;;4.57;1.67;;;28.70;99.90;;;;;;5033936;28;20067;-60
2022/09/05 11:18:04;;;;;;;2.53;1.75;;;28.60;99.90;;;;;;5030092;28;20136;-60
2022/09/05 11:20:32;;;;;;;4.15;1.80;;;28.50;99.90;;;;;;5052384;28;20041;-60
2022/09/05 11:23:09;;;;;;;2.78;1.95;;;28.50;99.90;;;;;;5047325;28;20069;-60
2022/09/05 11:25:36;;;;;;;2.63;1.63;;;28.50;99.90;;;;;;5050813;28;20571;-59
2022/09/05 11:28:12;;;;;;;2.35;1.77;;;28.60;99.90;;;;;;5030881;28;20036;-60
2022/09/05 11:30:42;;;;;;;2.72;1.40;;;28.60;99.90;;;;;;5052883;28;20037;-59
2022/09/05 11:33:29;;;;;;;3.33;1.20;;;28.60;99.90;;;;;;5050157;28;20045;-61
2022/09/05 11:36:10;;;;;;;5.45;1.50;;;28.70;99.90;;;;;;5048075;28;20071;-60
2022/09/05 11:39:12;;;;;;;2.70;1.30;;;28.80;99.90;;;;;;5050398;28;20041;-60
2022/09/05 11:42:09;;;;;;;5.40;1.92;;;28.90;99.90;;;;;;5037105;28;20140;-60
2022/09/05 11:44:56;;;;;;;3.40;1.50;;;28.90;99.90;;;;;;5050118;28;20045;-61
2022/09/05 11:47:37;;;;;;;3.13;1.40;;;28.80;99.90;;;;;;5048567;28;20387;-60
2022/09/05 11:50:24;;;;;;;2.97;1.38;;;28.80;99.90;;;;;;5046549;28;20040;-59
2022/09/05 11:53:08;;;;;;;1.63;1.33;;;28.90;99.90;;;;;;5043245;28;20367;-60
2022/09/05 11:56:07;;;;;;;2.22;1.27;;;28.80;99.90;;;;;;5045774;28;20037;-60
2022/09/05 11:59:01;;;;;;;10.15;2.13;;;28.70;99.90;;;;;;5012737;28;20451;-61
2022/09/05 12:01:55;;;;;;;2.80;1.45;;;28.80;99.90;;;;;;5049931;28;20124;-60
2022/09/05 12:04:36;;;;;;;1.63;1.30;;;28.80;99.90;;;;;;5042264;28;20053;-60
2022/09/05 12:07:22;;;;;;;2.20;1.60;;;28.80;99.90;;;;;;5042267;28;20033;-60
2022/09/05 12:10:36;;;;;;;3.28;1.40;;;28.80;99.90;;;;;;5047810;28;20040;-60
2022/09/05 12:13:16;;;;;;;2.40;1.60;;;28.70;99.90;;;;;;5024910;28;20563;-61
2022/09/05 12:15:45;;;;;;;2.63;1.38;;;28.70;99.90;;;;;;5046977;28;20044;-60
2022/09/05 12:18:33;;;;;;;4.95;2.22;;;28.80;99.90;;;;;;5043329;28;20039;-60
2022/09/05 12:21:17;;;;;;;2.20;1.65;;;28.90;99.90;;;;;;5029668;28;20125;-59
2022/09/05 12:24:09;;;;;;;2.95;1.67;;;28.70;99.90;;;;;;5044597;28;20033;-59
2022/09/05 12:26:53;;;;;;;6.68;2.63;;;28.70;99.90;;;;;;5051504;28;20041;-60
2022/09/05 12:29:22;;;;;;;3.88;1.45;;;28.70;99.90;;;;;;5026161;28;20049;-60
2022/09/05 12:31:52;;;;;;;5.97;2.00;;;28.80;99.90;;;;;;5051399;28;20029;-59
2022/09/05 12:34:51;;;;;;;3.17;1.45;;;28.70;99.90;;;;;;5039446;28;20045;-59
2022/09/05 12:37:22;;;;;;;5.63;1.65;;;28.60;99.90;;;;;;5045311;28;20048;-60
2022/09/05 12:39:57;;;;;;;5.32;1.67;;;28.70;99.90;;;;;;5050107;28;20124;-60
2022/09/05 12:42:40;;;;;;;6.65;1.85;;;28.40;99.90;;;;;;5048775;28;20040;-60
2022/09/05 12:45:18;;;;;;;3.80;1.30;;;28.40;99.90;;;;;;5032521;28;20067;-59
2022/09/05 12:47:58;;;;;;;2.25;1.40;;;28.40;99.90;;;;;;5028231;28;20410;-59
2022/09/05 12:50:33;;;;;;;9.23;3.00;;;28.30;99.90;;;;;;5033988;28;20043;-59
2022/09/05 12:53:05;;;;;;;;;;;28.30;99.90;;;;;;5051094;28;20049;-60
2022/09/05 12:55:36;;;;;;;4.10;2.10;;;28.40;99.90;;;;;;5049894;28;20007;-59
2022/09/05 12:58:31;;;;;;;3.20;1.75;;;28.40;99.90;;;;;;5047594;28;20040;-59
2022/09/05 13:01:29;;;;;;;1.97;1.20;;;28.40;99.90;;;;;;5028587;28;20510;-60
2022/09/05 13:04:12;;;;;;;2.35;1.48;;;28.50;99.90;;;;;;5040302;28;20048;-61
2022/09/05 13:06:45;;;;;;;4.60;1.85;;;28.70;99.90;;;;;;5047665;28;20482;-59
2022/09/05 13:09:20;;;;;;;8.80;1.60;;;28.70;99.90;;;;;;5043681;28;20033;-59
2022/09/05 13:12:08;;;;;;;1.95;1.48;;;28.90;99.90;;;;;;5041481;28;20041;-60
2022/09/05 13:14:57;;;;;;;2.65;1.52;;;29.10;99.90;;;;;;5043099;28;20048;-60
2022/09/05 13:17:35;;;;;;;8.82;1.50;;;29.10;99.90;;;;;;4995964;28;20099;-60
2022/09/05 13:20:07;;;;;;;2.55;1.50;;;29.00;99.90;;;;;;5044268;28;20521;-59
2022/09/05 13:22:37;;;;;;;2.10;1.40;;;28.80;99.90;;;;;;5045642;28;20037;-59
2022/09/05 13:25:08;;;;;;;4.55;1.80;;;28.70;99.90;;;;;;5031644;28;20040;-59
2022/09/05 13:27:40;;;;;;;2.20;1.40;;;28.80;99.90;;;;;;5029954;28;20036;-60
2022/09/05 13:30:11;;;;;;;2.28;1.35;;;28.70;99.90;;;;;;5045033;28;20510;-59
2022/09/05 13:32:44;;;;;;;4.07;1.40;;;28.80;99.90;;;;;;5036909;28;20037;-60
2022/09/05 13:35:14;;;;;;;3.80;1.60;;;28.80;99.90;;;;;;5051150;28;20060;-59
2022/09/05 13:37:54;;;;;;;3.00;1.67;;;28.70;99.90;;;;;;5046298;28;20033;-60
2022/09/05 13:40:25;;;;;;;2.15;1.42;;;28.70;99.90;;;;;;5047056;28;20045;-60
2022/09/05 13:43:10;;;;;;;3.95;1.67;;;28.60;99.90;;;;;;5030449;28;20049;-59
2022/09/05 13:46:15;;;;;;;4.20;1.55;;;28.50;99.90;;;;;;5047854;28;20041;-59
2022/09/05 13:48:50;;;;;;;2.78;1.70;;;28.40;99.90;;;;;;5045715;28;20041;-60
2022/09/05 13:51:37;;;;;;;2.65;1.73;;;28.40;99.90;;;;;;5044708;28;20529;-59
2022/09/05 13:54:40;;;;;;;8.77;2.78;;;28.30;99.90;;;;;;5045909;28;20048;-59
2022/09/05 13:57:18;;;;;;;3.30;1.70;;;28.20;99.90;;;;;;5045215;28;20390;-62
2022/09/05 14:00:08;;;;;;;2.25;1.50;;;28.10;99.90;;;;;;5051594;28;20080;-60
2022/09/05 14:02:58;;;;;;;4.50;1.70;;;28.10;99.90;;;;;;5047277;28;20052;-60
2022/09/05 14:05:33;;;;;;;2.25;1.70;;;28.10;99.90;;;;;;5043887;28;20073;-60
2022/09/05 14:08:32;;;;;;;2.55;1.67;;;28.20;99.90;;;;;;5050112;28;20041;-59